Wetterdaten: aktuell Mittwoch, 28.06.2017 22:45
Datum Zeit Auentemp. Feuchte A. Luftdruck Niederschl. Wind Richtung Richtung Sonnenschein UV Windben
28.06.2017 22:45 17,8 C 86 % 996,4 hPa 21,6 l/m 3,6 km/h W 281 0 min 0,0 UV-I 11,3 km/h
28.06.2017 21:45 22,4 C 74 % 995,1 hPa 0,0 l/m 1,3 km/h S-SO 168 0 min 0,0 UV-I 3,2 km/h
28.06.2017 20:45 24,1 C 58 % 995,0 hPa 0,0 l/m 1,0 km/h NW 321 5 min 0,0 UV-I 3,2 km/h
28.06.2017 19:45 25,0 C 54 % 995,5 hPa 0,0 l/m 1,0 km/h S-SW 196 0 min 0,0 UV-I 1,6 km/h
28.06.2017 18:45 25,4 C 51 % 996,1 hPa 0,0 l/m 2,5 km/h O 96 60 min 0,7 UV-I 8,0 km/h
28.06.2017 17:45 25,5 C 53 % 996,9 hPa 0,0 l/m 4,9 km/h O-SO 117 60 min 1,4 UV-I 11,3 km/h
28.06.2017 16:45 26,2 C 53 % 997,2 hPa 0,0 l/m 5,5 km/h S 174 60 min 2,7 UV-I 16,1 km/h
28.06.2017 15:45 26,4 C 56 % 998,4 hPa 0,0 l/m 4,9 km/h S 179 55 min 4,9 UV-I 14,5 km/h
28.06.2017 14:45 25,7 C 56 % 998,8 hPa 0,0 l/m 7,0 km/h S-SW 204 60 min 6,4 UV-I 16,1 km/h
28.06.2017 13:45 24,0 C 66 % 1000,0 hPa 0,0 l/m 7,3 km/h W 269 60 min 7,2 UV-I 17,7 km/h
28.06.2017 12:45 22,5 C 73 % 1000,9 hPa 0,0 l/m 5,0 km/h S-SW 194 25 min 3,0 UV-I 11,3 km/h
28.06.2017 11:45 19,9 C 85 % 1001,0 hPa 0,0 l/m 2,4 km/h W-NW 286 0 min 2,0 UV-I 8,0 km/h
28.06.2017 10:45 19,2 C 86 % 1000,9 hPa 0,0 l/m 6,3 km/h W-SW 250 0 min 3,0 UV-I 14,5 km/h
28.06.2017 09:45 18,3 C 86 % 1001,0 hPa 0,0 l/m 2,3 km/h W-SW 252 0 min 0,6 UV-I 4,8 km/h
28.06.2017 08:45 17,8 C 86 % 1001,0 hPa 0,4 l/m 5,5 km/h N-NW 327 0 min 0,8 UV-I 9,7 km/h
28.06.2017 07:45 18,1 C 86 % 1000,3 hPa 5,4 l/m 8,0 km/h W-NW 291 0 min 0,0 UV-I 12,9 km/h
28.06.2017 06:45 19,4 C 86 % 1000,9 hPa 0,4 l/m 1,6 km/h S 180 0 min 0,0 UV-I 4,8 km/h
28.06.2017 05:45 19,6 C 85 % 999,1 hPa 0,0 l/m 3,2 km/h O 90 0 min 0,0 UV-I 8,0 km/h
28.06.2017 04:45 19,9 C 85 % 999,6 hPa 0,0 l/m 1,6 km/h O-SO 112 0 min 0,0 UV-I 4,8 km/h
28.06.2017 03:45 20,1 C 84 % 1000,3 hPa 0,0 l/m 3,2 km/h O-SO 112 0 min 0,0 UV-I 8,0 km/h
28.06.2017 02:45 20,2 C 85 % 1000,8 hPa 0,0 l/m 3,2 km/h O 90 0 min 0,0 UV-I 8,0 km/h
28.06.2017 01:45 20,4 C 84 % 1002,0 hPa 0,0 l/m 1,6 km/h O 90 0 min 0,0 UV-I 4,8 km/h
28.06.2017 00:45 21,1 C 82 % 1002,1 hPa 0,0 l/m 3,2 km/h O 90 0 min 0,0 UV-I 8,0 km/h
28.06.2017 00:00 21,3 C 82 % 1002,6 hPa 0,0 l/m 3,2 km/h O 90 0 min 0,0 UV-I 8,0 km/h
_ Min-Zeit 22:45 18:40 21:25 - 04:05 - - - - 21:30
Minimum _ 17,8 C 49 % 994,7 hPa - 0,0 km/h - - - - 1,6 km/h
_ Max-Zeit 15:25 10:30 00:10 22:20 07:10 - - 19:50 14:10 07:10
Maximum _ 26,9 C 87 % 1002,6 hPa 5,8 l/m 16,1 km/h
NW
- - 5 min 7,6 UV-I 27,4 km/h
NW
Durchschnitt _ 21,7 C 74 % 999,2 hPa #27,8 l/m 3,8 km/h O - #6:25 h 3,3 UV-I 9,2 km/h